Time;durP1;ratioP1;P1;durP2;ratioP2;P2;SDS_P1;SDS_P2;PMS_P1;PMS_P2;Temp;Humidity;BMP_temperature;BMP_pressure;BME280_temperature;BME280_humidity;BME280_pressure;Samples;Min_cycle;Max_cycle;Signal;HPM_P1;HPM_P2
2022/11/03 00:00:29;;;;;;;;;0.00;0.00;;;;;;;;4781543;29;11713;-93
2022/11/03 00:02:54;;;;;;;;;0.00;0.00;;;;;;;;4782059;29;8872;-93
2022/11/03 00:08:03;;;;;;;;;0.00;0.00;;;;;;;;4768318;30;8848;-92
2022/11/03 00:10:29;;;;;;;;;0.00;0.00;;;;;;;;4766956;30;11725;-93
2022/11/03 00:12:54;;;;;;;;;0.00;0.00;;;;;;;;4768160;29;9024;-93
2022/11/03 00:15:19;;;;;;;;;0.00;0.00;;;;;;;;4781026;29;11834;-93
2022/11/03 00:17:45;;;;;;;;;0.00;0.00;;;;;;;;4778554;29;8881;-93
2022/11/03 00:20:10;;;;;;;;;0.00;0.00;;;;;;;;4769577;29;8866;-92
2022/11/03 00:22:36;;;;;;;;;0.00;0.00;;;;;;;;4762469;30;8991;-93
2022/11/03 00:25:01;;;;;;;;;0.00;0.00;;;;;;;;4781004;29;8864;-92
2022/11/03 00:27:26;;;;;;;;;0.00;0.00;;;;;;;;4779912;29;8973;-93
2022/11/03 00:29:51;;;;;;;;;0.00;0.00;;;;;;;;4753840;29;8958;-93
2022/11/03 00:32:16;;;;;;;;;0.00;0.00;;;;;;;;4766418;29;9624;-93
2022/11/03 00:34:42;;;;;;;;;0.00;0.00;;;;;;;;4781640;29;8880;-93
2022/11/03 00:37:07;;;;;;;;;0.00;0.00;;;;;;;;4781549;29;8891;-94
2022/11/03 00:39:32;;;;;;;;;0.00;0.00;;;;;;;;4781533;29;8876;-93
2022/11/03 00:41:57;;;;;;;;;0.00;0.00;;;;;;;;4767374;29;45548;-92
2022/11/03 00:44:22;;;;;;;;;0.33;0.33;;;;;;;;4747487;29;45726;-93
2022/11/03 00:46:48;;;;;;;;;0.00;0.00;;;;;;;;4748489;29;45513;-92
2022/11/03 00:49:13;;;;;;;;;0.00;0.00;;;;;;;;4735656;29;47124;-93
2022/11/03 00:51:38;;;;;;;;;0.00;0.00;;;;;;;;4751927;29;45626;-93
2022/11/03 00:54:04;;;;;;;;;0.00;0.00;;;;;;;;4735787;29;45732;-93
2022/11/03 00:56:40;;;;;;;;;0.00;0.00;;;;;;;;4751772;29;45590;-93
2022/11/03 00:59:06;;;;;;;;;0.00;0.00;;;;;;;;4735256;29;48105;-93
2022/11/03 01:01:42;;;;;;;;;0.00;0.00;;;;;;;;4735783;29;45553;-93
2022/11/03 01:06:53;;;;;;;;;0.00;0.00;;;;;;;;4777763;29;8856;-92
2022/11/03 01:09:20;;;;;;;;;0.00;0.00;;;;;;;;4767047;30;11686;-93
2022/11/03 01:11:56;;;;;;;;;0.00;0.00;;;;;;;;4780408;29;11802;-91
2022/11/03 01:14:21;;;;;;;;;0.00;0.00;;;;;;;;4766936;30;11759;-92
2022/11/03 01:16:46;;;;;;;;;0.00;0.00;;;;;;;;4767055;30;11693;-91
2022/11/03 01:19:12;;;;;;;;;0.00;0.00;;;;;;;;4770699;29;9602;-93
2022/11/03 01:21:37;;;;;;;;;0.00;0.00;;;;;;;;4766094;29;8912;-92
2022/11/03 01:24:03;;;;;;;;;0.00;0.00;;;;;;;;4771927;29;8928;-93
2022/11/03 01:26:28;;;;;;;;;0.00;0.00;;;;;;;;4771574;29;8854;-93
2022/11/03 01:28:54;;;;;;;;;0.00;0.00;;;;;;;;4746170;29;45383;-93
2022/11/03 01:31:20;;;;;;;;;0.00;0.00;;;;;;;;4738259;29;45455;-93
2022/11/03 01:33:47;;;;;;;;;0.33;0.33;;;;;;;;4738761;29;45574;-92
2022/11/03 01:36:14;;;;;;;;;0.00;0.00;;;;;;;;4736352;29;45511;-92
2022/11/03 01:38:39;;;;;;;;;0.00;0.00;;;;;;;;4735891;30;45456;-93
2022/11/03 01:41:05;;;;;;;;;0.00;0.00;;;;;;;;4725212;29;45432;-93
2022/11/03 01:43:31;;;;;;;;;0.00;0.00;;;;;;;;4738503;29;45491;-92
2022/11/03 01:46:08;;;;;;;;;0.00;0.00;;;;;;;;4737809;29;45607;-93
2022/11/03 01:48:34;;;;;;;;;0.00;0.00;;;;;;;;4738067;29;48582;-93
2022/11/03 01:51:00;;;;;;;;;0.00;0.00;;;;;;;;4738316;29;45584;-93
2022/11/03 01:53:26;;;;;;;;;0.00;0.00;;;;;;;;4735045;30;45412;-93
2022/11/03 01:55:53;;;;;;;;;0.00;0.00;;;;;;;;4738020;30;45445;-93
2022/11/03 01:58:22;;;;;;;;;0.00;0.00;;;;;;;;4754524;30;8840;-93
2022/11/03 02:00:49;;;;;;;;;0.00;0.00;;;;;;;;4753719;30;11785;-93
2022/11/03 02:03:15;;;;;;;;;0.00;0.00;;;;;;;;4754061;30;11836;-92
2022/11/03 02:05:42;;;;;;;;;0.00;0.00;;;;;;;;4782919;29;11686;-92
2022/11/03 02:08:10;;;;;;;;;0.00;0.00;;;;;;;;4753477;30;9668;-93
2022/11/03 02:10:36;;;;;;;;;0.00;0.00;;;;;;;;4782510;29;11777;-92
2022/11/03 02:13:06;;;;;;;;;0.00;0.00;;;;;;;;4783304;29;11694;-93
2022/11/03 02:15:32;;;;;;;;;0.00;0.00;;;;;;;;4782845;29;8855;-93
2022/11/03 02:17:58;;;;;;;;;0.00;0.00;;;;;;;;4771784;29;11738;-93
2022/11/03 02:20:25;;;;;;;;;0.00;0.00;;;;;;;;4753298;30;8856;-93
2022/11/03 02:22:50;;;;;;;;;0.00;0.00;;;;;;;;4753770;30;11663;-93
2022/11/03 02:25:15;;;;;;;;;0.00;0.00;;;;;;;;4752746;30;11702;-92
2022/11/03 02:27:40;;;;;;;;;0.00;0.00;;;;;;;;4776295;29;8930;-92
2022/11/03 02:30:06;;;;;;;;;0.00;0.00;;;;;;;;4767001;30;8852;-92
2022/11/03 02:32:44;;;;;;;;;0.00;0.00;;;;;;;;4752930;30;9652;-92
2022/11/03 02:35:18;;;;;;;;;0.00;0.00;;;;;;;;4769342;30;8930;-93
2022/11/03 02:37:46;;;;;;;;;0.00;0.00;;;;;;;;4780676;29;11694;-92
2022/11/03 02:40:13;;;;;;;;;0.00;0.00;;;;;;;;4782224;29;8840;-93
2022/11/03 02:42:41;;;;;;;;;0.00;0.00;;;;;;;;4769207;30;11670;-93
2022/11/03 02:45:08;;;;;;;;;0.00;0.00;;;;;;;;4782736;29;11697;-93
2022/11/03 02:47:35;;;;;;;;;0.00;0.00;;;;;;;;4772519;29;11679;-92
2022/11/03 02:50:06;;;;;;;;;0.00;0.00;;;;;;;;4782735;29;8852;-93
2022/11/03 02:52:34;;;;;;;;;0.00;0.00;;;;;;;;4782590;29;11674;-93
2022/11/03 02:55:01;;;;;;;;;0.00;0.00;;;;;;;;4752509;30;11686;-92
2022/11/03 02:57:29;;;;;;;;;0.00;0.00;;;;;;;;4782684;29;11705;-93
2022/11/03 03:00:05;;;;;;;;;0.00;0.00;;;;;;;;4782229;29;11622;-93
2022/11/03 03:02:54;;;;;;;;;0.00;0.00;;;;;;;;4782398;29;11705;-92
2022/11/03 03:05:22;;;;;;;;;0.00;0.00;;;;;;;;4772553;29;11746;-92
2022/11/03 03:07:50;;;;;;;;;0.00;0.00;;;;;;;;4782082;29;11797;-92
2022/11/03 03:10:24;;;;;;;;;0.00;0.00;;;;;;;;4781952;29;11779;-92
2022/11/03 03:12:54;;;;;;;;;0.00;0.00;;;;;;;;4768125;29;11799;-93
2022/11/03 03:15:33;;;;;;;;;0.00;0.00;;;;;;;;4745242;30;44810;-93
2022/11/03 03:18:03;;;;;;;;;0.00;0.00;;;;;;;;4719102;30;46176;-93
2022/11/03 03:20:48;;;;;;;;;0.00;0.00;;;;;;;;4734863;29;45462;-93
2022/11/03 03:23:19;;;;;;;;;0.00;0.00;;;;;;;;4719237;30;45380;-93
2022/11/03 03:25:48;;;;;;;;;0.00;0.00;;;;;;;;4719002;30;45398;-93
2022/11/03 03:28:15;;;;;;;;;0.00;0.00;;;;;;;;4736717;29;47690;-92
2022/11/03 03:30:41;;;;;;;;;0.00;0.00;;;;;;;;4736116;29;46292;-93
2022/11/03 03:33:07;;;;;;;;;0.00;0.00;;;;;;;;4736946;29;45491;-93
2022/11/03 03:35:33;;;;;;;;;0.00;0.00;;;;;;;;4736579;29;45703;-92
2022/11/03 03:38:04;;;;;;;;;0.00;0.00;;;;;;;;4735846;29;48338;-93
2022/11/03 03:40:32;;;;;;;;;0.00;0.00;;;;;;;;4731434;30;45450;-92
2022/11/03 03:42:58;;;;;;;;;0.00;0.00;;;;;;;;4719320;30;45410;-93
2022/11/03 03:45:24;;;;;;;;;0.00;0.00;;;;;;;;4747147;29;45550;-93
2022/11/03 03:47:50;;;;;;;;;0.00;0.00;;;;;;;;4742024;29;48186;-92
2022/11/03 03:50:15;;;;;;;;;0.00;0.00;;;;;;;;4718514;30;45890;-92
2022/11/03 03:52:40;;;;;;;;;0.00;0.00;;;;;;;;4734348;29;45356;-92
2022/11/03 03:55:11;;;;;;;;;0.00;0.00;;;;;;;;4718076;30;45551;-92
2022/11/03 03:57:36;;;;;;;;;0.00;0.00;;;;;;;;4718805;30;47015;-93
2022/11/03 04:00:03;;;;;;;;;0.00;0.00;;;;;;;;4718484;29;45879;-93
2022/11/03 04:02:28;;;;;;;;;0.00;0.00;;;;;;;;4747837;29;45488;-93
2022/11/03 04:04:53;;;;;;;;;0.00;0.00;;;;;;;;4748340;29;45400;-93
2022/11/03 04:10:17;;;;;;;;;0.00;0.00;;;;;;;;4714041;30;45691;-91
2022/11/03 04:23:38;;;;;;;;;0.00;0.00;;;;;;;;4714224;30;45450;-91
2022/11/03 04:26:09;;;;;;;;;0.00;0.00;;;;;;;;4714012;30;45503;-92
2022/11/03 04:28:34;;;;;;;;;0.00;0.00;;;;;;;;4696559;30;48201;-93
2022/11/03 04:30:59;;;;;;;;;0.00;0.00;;;;;;;;4691806;30;46612;-92
2022/11/03 04:33:24;;;;;;;;;0.00;0.00;;;;;;;;4713896;30;45392;-92
2022/11/03 04:35:51;;;;;;;;;0.00;0.00;;;;;;;;4699213;30;45584;-93
2022/11/03 04:38:17;;;;;;;;;0.00;0.00;;;;;;;;4713891;30;46275;-92
2022/11/03 04:40:43;;;;;;;;;0.00;0.00;;;;;;;;4698449;30;45564;-92
2022/11/03 04:43:16;;;;;;;;;0.00;0.00;;;;;;;;4701821;30;45334;-93
2022/11/03 04:45:43;;;;;;;;;0.00;0.00;;;;;;;;4711517;30;45519;-93
2022/11/03 04:48:13;;;;;;;;;0.00;0.00;;;;;;;;4751605;30;8952;-92
2022/11/03 04:50:38;;;;;;;;;0.00;0.00;;;;;;;;4751199;30;11683;-93
2022/11/03 04:53:08;;;;;;;;;0.00;0.00;;;;;;;;4751621;30;8872;-92
2022/11/03 04:55:33;;;;;;;;;0.00;0.00;;;;;;;;4751020;30;8952;-91
2022/11/03 04:58:01;;;;;;;;;0.00;0.00;;;;;;;;4784103;29;11701;-93
2022/11/03 05:00:26;;;;;;;;;0.00;0.00;;;;;;;;4783577;29;8883;-92
2022/11/03 05:02:51;;;;;;;;;1.00;1.00;;;;;;;;4784420;29;12484;-92
2022/11/03 05:05:21;;;;;;;;;0.00;0.00;;;;;;;;4769853;30;8853;-93
2022/11/03 05:07:48;;;;;;;;;0.00;0.00;;;;;;;;4784203;29;8856;-92
2022/11/03 05:10:15;;;;;;;;;0.00;0.00;;;;;;;;4780075;29;11792;-93
2022/11/03 05:12:41;;;;;;;;;0.00;0.00;;;;;;;;4754361;30;11603;-92
2022/11/03 05:15:10;;;;;;;;;0.00;0.00;;;;;;;;4753830;30;11705;-92
2022/11/03 05:17:36;;;;;;;;;0.00;0.00;;;;;;;;4770237;30;8824;-93
2022/11/03 05:20:02;;;;;;;;;0.00;0.00;;;;;;;;4753724;30;11774;-92
2022/11/03 05:22:34;;;;;;;;;0.00;0.00;;;;;;;;4754018;30;11682;-93
2022/11/03 05:25:01;;;;;;;;;0.00;0.00;;;;;;;;4753868;30;11710;-91
2022/11/03 05:27:26;;;;;;;;;0.00;0.00;;;;;;;;4771588;29;11690;-93
2022/11/03 05:29:53;;;;;;;;;1.00;1.00;;;;;;;;4771972;29;11713;-93
2022/11/03 05:32:21;;;;;;;;;0.00;0.00;;;;;;;;4788264;29;8853;-93
2022/11/03 05:34:48;;;;;;;;;0.00;0.00;;;;;;;;4772223;29;11709;-93
2022/11/03 05:37:23;;;;;;;;;0.00;0.00;;;;;;;;4771660;29;11712;-92
2022/11/03 05:39:52;;;;;;;;;0.00;0.00;;;;;;;;4771279;29;11701;-93
2022/11/03 05:42:21;;;;;;;;;0.00;0.00;;;;;;;;4771254;29;11746;-92
2022/11/03 05:44:46;;;;;;;;;0.00;0.00;;;;;;;;4787458;29;11681;-93
2022/11/03 05:47:17;;;;;;;;;0.00;0.00;;;;;;;;4770864;29;12533;-91
2022/11/03 05:49:42;;;;;;;;;0.00;0.00;;;;;;;;4770286;29;8878;-92
2022/11/03 05:52:12;;;;;;;;;0.00;0.00;;;;;;;;4771227;29;11737;-92
2022/11/03 05:54:38;;;;;;;;;0.00;0.00;;;;;;;;4771028;29;8880;-92
2022/11/03 05:57:07;;;;;;;;;0.00;0.00;;;;;;;;4771047;29;11677;-92
2022/11/03 05:59:32;;;;;;;;;0.00;0.00;;;;;;;;4787431;29;8837;-92
2022/11/03 06:01:59;;;;;;;;;0.00;0.00;;;;;;;;4771115;29;8903;-92
2022/11/03 06:04:27;;;;;;;;;0.00;0.00;;;;;;;;4756463;30;8857;-92
2022/11/03 06:07:19;;;;;;;;;0.00;0.00;;;;;;;;4752907;30;11662;-92
2022/11/03 06:09:45;;;;;;;;;0.00;0.00;;;;;;;;4752551;30;11692;-92
2022/11/03 06:12:14;;;;;;;;;0.00;0.00;;;;;;;;4752996;30;11810;-93
2022/11/03 06:14:39;;;;;;;;;0.00;0.00;;;;;;;;4753511;30;8848;-92
2022/11/03 06:17:06;;;;;;;;;0.00;0.00;;;;;;;;4753251;30;11893;-92
2022/11/03 06:19:36;;;;;;;;;0.00;0.00;;;;;;;;4753465;30;8852;-93
2022/11/03 06:22:07;;;;;;;;;0.00;0.00;;;;;;;;4769063;30;11631;-92
2022/11/03 06:24:32;;;;;;;;;0.00;0.00;;;;;;;;4752868;30;11709;-93
2022/11/03 06:26:58;;;;;;;;;0.00;0.00;;;;;;;;4754131;29;11728;-92
2022/11/03 06:29:29;;;;;;;;;0.00;0.00;;;;;;;;4770979;29;8882;-93
2022/11/03 06:31:57;;;;;;;;;0.00;0.00;;;;;;;;4760545;30;8848;-93
2022/11/03 06:34:42;;;;;;;;;0.00;0.00;;;;;;;;4783205;29;11700;-93
2022/11/03 06:37:30;;;;;;;;;0.00;0.00;;;;;;;;4753010;30;11820;-93
2022/11/03 06:40:01;;;;;;;;;0.00;0.00;;;;;;;;4778836;29;11666;-93
2022/11/03 06:42:28;;;;;;;;;0.00;0.00;;;;;;;;4770666;29;11956;-93
2022/11/03 06:44:53;;;;;;;;;0.00;0.00;;;;;;;;4770891;29;8952;-93
2022/11/03 06:47:21;;;;;;;;;0.00;0.00;;;;;;;;4770706;29;11863;-92
2022/11/03 06:49:46;;;;;;;;;0.00;0.00;;;;;;;;4770905;29;8842;-92
2022/11/03 06:52:21;;;;;;;;;0.00;0.00;;;;;;;;4770953;29;11684;-93
2022/11/03 06:55:05;;;;;;;;;0.00;0.00;;;;;;;;4759948;30;8871;-92
2022/11/03 06:57:33;;;;;;;;;0.00;0.00;;;;;;;;4752789;30;11789;-91
2022/11/03 06:59:58;;;;;;;;;0.00;0.00;;;;;;;;4768748;29;11717;-92
2022/11/03 07:02:49;;;;;;;;;0.00;0.00;;;;;;;;4767314;29;11707;-92
2022/11/03 07:05:22;;;;;;;;;0.00;0.00;;;;;;;;4755068;30;8862;-94
2022/11/03 07:07:48;;;;;;;;;0.00;0.00;;;;;;;;4753208;30;11763;-92
2022/11/03 07:10:13;;;;;;;;;0.00;0.00;;;;;;;;4753352;30;8856;-92
2022/11/03 07:12:40;;;;;;;;;0.00;0.00;;;;;;;;4753199;30;8868;-93
2022/11/03 07:15:15;;;;;;;;;0.00;0.00;;;;;;;;4768718;29;8805;-92
2022/11/03 07:17:40;;;;;;;;;0.00;0.00;;;;;;;;4786877;29;11664;-92
2022/11/03 07:20:12;;;;;;;;;0.00;0.00;;;;;;;;4770164;29;11834;-91
2022/11/03 07:22:37;;;;;;;;;0.00;0.00;;;;;;;;4770580;29;8874;-91
2022/11/03 07:25:04;;;;;;;;;0.00;0.00;;;;;;;;4770493;29;8864;-92
2022/11/03 07:27:33;;;;;;;;;0.00;0.00;;;;;;;;4774757;29;8850;-93
2022/11/03 07:30:04;;;;;;;;;0.00;0.00;;;;;;;;4756654;29;8860;-92
2022/11/03 07:32:31;;;;;;;;;0.00;0.00;;;;;;;;4757171;29;11701;-93
2022/11/03 07:35:15;;;;;;;;;0.00;0.00;;;;;;;;4756699;30;8852;-92
2022/11/03 07:37:40;;;;;;;;;0.00;0.00;;;;;;;;4770640;29;8880;-90
2022/11/03 07:40:11;;;;;;;;;0.00;0.00;;;;;;;;4781794;29;8875;-91
2022/11/03 07:42:36;;;;;;;;;0.00;0.00;;;;;;;;4769654;29;8873;-93
2022/11/03 07:45:16;;;;;;;;;0.00;0.00;;;;;;;;4782113;29;9625;-87
2022/11/03 07:47:42;;;;;;;;;0.00;0.00;;;;;;;;4767331;29;9294;-87
2022/11/03 07:50:13;;;;;;;;;0.00;0.00;;;;;;;;4779360;29;8969;-87
2022/11/03 07:52:38;;;;;;;;;0.00;0.00;;;;;;;;4784481;29;9781;-86
2022/11/03 07:55:09;;;;;;;;;0.00;0.00;;;;;;;;4773332;29;11620;-86
2022/11/03 07:57:34;;;;;;;;;0.00;0.00;;;;;;;;4743582;30;8883;-88
2022/11/03 08:00:03;;;;;;;;;0.00;0.00;;;;;;;;4737772;30;8951;-83
2022/11/03 08:02:47;;;;;;;;;0.00;0.00;;;;;;;;4735887;30;9468;-84
2022/11/03 08:05:12;;;;;;;;;0.00;0.00;;;;;;;;4730754;30;12365;-84
2022/11/03 08:07:37;;;;;;;;;0.00;0.00;;;;;;;;4739204;30;8895;-85
2022/11/03 08:10:03;;;;;;;;;0.00;0.00;;;;;;;;4748283;30;8850;-86
2022/11/03 08:12:28;;;;;;;;;0.00;0.00;;;;;;;;4731346;30;8868;-86
2022/11/03 08:14:53;;;;;;;;;0.00;0.00;;;;;;;;4748305;30;8919;-86
2022/11/03 08:17:18;;;;;;;;;0.00;0.00;;;;;;;;4748648;30;9355;-85
2022/11/03 08:19:44;;;;;;;;;0.00;0.00;;;;;;;;4748498;30;9051;-86
2022/11/03 08:22:09;;;;;;;;;0.00;0.00;;;;;;;;4745298;30;8924;-86
2022/11/03 08:24:34;;;;;;;;;0.00;0.00;;;;;;;;4746822;30;8939;-86
2022/11/03 08:26:59;;;;;;;;;0.00;0.00;;;;;;;;4733191;30;9097;-86
2022/11/03 08:29:26;;;;;;;;;0.00;0.00;;;;;;;;4736810;30;8884;-86
2022/11/03 08:31:51;;;;;;;;;0.00;0.00;;;;;;;;4742654;30;8810;-85
2022/11/03 08:34:17;;;;;;;;;0.00;0.00;;;;;;;;4748296;30;11692;-86
2022/11/03 08:36:42;;;;;;;;;0.00;0.00;;;;;;;;4748524;30;9631;-84
2022/11/03 08:39:07;;;;;;;;;0.00;0.00;;;;;;;;4744226;30;8990;-86
2022/11/03 08:41:32;;;;;;;;;0.00;0.00;;;;;;;;4748556;30;9668;-85
2022/11/03 08:43:57;;;;;;;;;0.00;0.00;;;;;;;;4752042;30;8881;-84
2022/11/03 08:46:22;;;;;;;;;0.00;0.00;;;;;;;;4733932;30;8855;-86
2022/11/03 08:48:48;;;;;;;;;0.00;0.00;;;;;;;;4737782;30;8875;-85
2022/11/03 08:51:14;;;;;;;;;0.00;0.00;;;;;;;;4740719;30;8955;-86
2022/11/03 08:53:41;;;;;;;;;0.00;0.00;;;;;;;;4739704;30;8852;-84
2022/11/03 08:56:06;;;;;;;;;3.00;0.00;;;;;;;;4770592;29;8872;-85
2022/11/03 08:58:31;;;;;;;;;0.00;0.00;;;;;;;;4767913;29;9013;-85
2022/11/03 09:00:57;;;;;;;;;0.00;0.00;;;;;;;;4777425;29;9645;-85
2022/11/03 09:03:22;;;;;;;;;0.00;0.00;;;;;;;;4763780;29;8865;-85
2022/11/03 09:05:47;;;;;;;;;0.00;0.00;;;;;;;;4774730;29;8910;-87
2022/11/03 09:08:12;;;;;;;;;0.00;0.00;;;;;;;;4766444;29;8862;-87
2022/11/03 09:10:38;;;;;;;;;0.00;0.00;;;;;;;;4753130;29;9031;-86
2022/11/03 09:13:03;;;;;;;;;0.00;0.00;;;;;;;;4776802;29;8911;-86
2022/11/03 09:15:29;;;;;;;;;0.00;0.00;;;;;;;;4775980;29;8866;-86
2022/11/03 09:17:54;;;;;;;;;0.00;0.00;;;;;;;;4776795;29;8887;-86
2022/11/03 09:20:20;;;;;;;;;1.00;1.00;;;;;;;;4758323;29;11711;-87
2022/11/03 09:22:45;;;;;;;;;0.00;0.00;;;;;;;;4778320;29;8894;-87
2022/11/03 09:25:10;;;;;;;;;0.00;0.00;;;;;;;;4766627;29;8868;-87
2022/11/03 09:27:35;;;;;;;;;0.00;0.00;;;;;;;;4776923;29;8873;-87
2022/11/03 09:30:00;;;;;;;;;0.00;0.00;;;;;;;;4774628;29;8887;-87
2022/11/03 09:32:26;;;;;;;;;0.00;0.00;;;;;;;;4755453;29;8881;-86
2022/11/03 09:34:51;;;;;;;;;0.00;0.00;;;;;;;;4761830;29;9720;-85
2022/11/03 09:37:16;;;;;;;;;0.00;0.00;;;;;;;;4769640;29;8841;-87
2022/11/03 09:39:42;;;;;;;;;0.00;0.00;;;;;;;;4762486;29;8873;-87
2022/11/03 09:42:08;;;;;;;;;0.00;0.00;;;;;;;;4769463;29;8939;-88
2022/11/03 09:44:35;;;;;;;;;0.00;0.00;;;;;;;;4759117;29;9699;-87
2022/11/03 09:47:00;;;;;;;;;0.00;0.00;;;;;;;;4758741;29;8853;-86
2022/11/03 09:49:27;;;;;;;;;0.00;0.00;;;;;;;;4762407;29;12945;-86
2022/11/03 09:51:54;;;;;;;;;0.00;0.00;;;;;;;;4780275;29;8865;-86
2022/11/03 09:54:19;;;;;;;;;0.00;0.00;;;;;;;;4761845;30;11702;-87
2022/11/03 09:56:46;;;;;;;;;0.00;0.00;;;;;;;;4764266;30;8867;-87
2022/11/03 09:59:29;;;;;;;;;0.00;0.00;;;;;;;;4760201;30;8855;-87
2022/11/03 10:01:54;;;;;;;;;0.00;0.00;;;;;;;;4756475;29;9643;-87
2022/11/03 10:04:26;;;;;;;;;0.00;0.00;;;;;;;;4763177;30;11691;-87
2022/11/03 10:06:53;;;;;;;;;0.00;0.00;;;;;;;;4764761;30;8858;-87
2022/11/03 10:09:19;;;;;;;;;0.00;0.00;;;;;;;;4747346;29;45478;-87
2022/11/03 10:11:45;;;;;;;;;0.00;0.00;;;;;;;;4734025;29;47313;-87
2022/11/03 10:14:12;;;;;;;;;0.00;0.00;;;;;;;;4760257;30;9557;-87
2022/11/03 10:16:39;;;;;;;;;0.00;0.00;;;;;;;;4762161;30;8855;-87
2022/11/03 10:19:04;;;;;;;;;0.00;0.00;;;;;;;;4762608;30;11667;-87
2022/11/03 10:21:30;;;;;;;;;0.00;0.00;;;;;;;;4757956;29;20310;-87
2022/11/03 10:23:55;;;;;;;;;0.00;0.00;;;;;;;;4755181;29;20314;-87
2022/11/03 10:26:21;;;;;;;;;0.00;0.00;;;;;;;;4752728;30;8869;-88
2022/11/03 10:29:05;;;;;;;;;0.00;0.00;;;;;;;;4765182;30;9793;-86
2022/11/03 10:31:37;;;;;;;;;0.00;0.00;;;;;;;;4764818;29;8849;-87
2022/11/03 10:34:03;;;;;;;;;0.00;0.00;;;;;;;;4758447;30;11703;-86
2022/11/03 10:36:30;;;;;;;;;0.00;0.00;;;;;;;;4760510;30;11660;-87
2022/11/03 10:38:55;;;;;;;;;1.00;1.00;;;;;;;;4760642;29;8843;-85
2022/11/03 10:41:25;;;;;;;;;0.00;0.00;;;;;;;;4760035;30;11763;-86
2022/11/03 10:44:09;;;;;;;;;0.00;0.00;;;;;;;;4751310;29;45209;-86
2022/11/03 10:46:34;;;;;;;;;0.00;0.00;;;;;;;;4718228;30;46058;-86
2022/11/03 10:49:18;;;;;;;;;0.00;0.00;;;;;;;;4729772;30;45297;-85
2022/11/03 10:51:46;;;;;;;;;0.00;0.00;;;;;;;;4728950;29;45556;-85
2022/11/03 10:54:13;;;;;;;;;0.00;0.00;;;;;;;;4722367;30;46404;-86
2022/11/03 10:56:39;;;;;;;;;0.00;0.00;;;;;;;;4739766;29;45539;-86
2022/11/03 10:59:04;;;;;;;;;0.00;0.00;;;;;;;;4731256;29;45405;-85
2022/11/03 11:01:30;;;;;;;;;0.00;0.00;;;;;;;;4750042;29;45615;-86
2022/11/03 11:03:55;;;;;;;;;0.00;0.00;;;;;;;;4737348;29;47166;-86
2022/11/03 11:06:24;;;;;;;;;0.00;0.00;;;;;;;;4747800;29;45523;-85
2022/11/03 11:08:52;;;;;;;;;0.00;0.00;;;;;;;;4738050;29;45644;-87
2022/11/03 11:11:18;;;;;;;;;0.00;0.00;;;;;;;;4734719;29;45493;-85
2022/11/03 11:13:43;;;;;;;;;0.00;0.00;;;;;;;;4726255;29;48292;-86
2022/11/03 11:16:27;;;;;;;;;0.00;0.00;;;;;;;;4750759;29;45515;-86
2022/11/03 11:18:52;;;;;;;;;0.00;0.00;;;;;;;;4730346;29;45493;-87
2022/11/03 11:21:18;;;;;;;;;0.00;0.00;;;;;;;;4739740;29;45474;-87
2022/11/03 11:23:43;;;;;;;;;0.00;0.00;;;;;;;;4737059;29;47420;-88
2022/11/03 11:26:09;;;;;;;;;0.00;0.00;;;;;;;;4761038;29;45527;-89
2022/11/03 11:28:37;;;;;;;;;0.00;0.00;;;;;;;;4754383;29;42322;-88
2022/11/03 11:31:26;;;;;;;;;0.00;0.00;;;;;;;;4752664;29;28469;-89
2022/11/03 11:34:16;;;;;;;;;0.00;0.00;;;;;;;;4749842;29;29436;-90
2022/11/03 11:36:46;;;;;;;;;0.00;0.00;;;;;;;;4747114;29;29056;-90
2022/11/03 11:39:11;;;;;;;;;3.00;3.00;;;;;;;;4749926;29;28794;-89
2022/11/03 11:41:55;;;;;;;;;0.00;0.00;;;;;;;;4732818;29;44899;-87
2022/11/03 11:44:39;;;;;;;;;0.00;0.00;;;;;;;;4745502;29;30829;-86
2022/11/03 11:47:19;;;;;;;;;0.00;0.00;;;;;;;;4755498;29;45488;-87
2022/11/03 11:49:44;;;;;;;;;0.00;0.00;;;;;;;;4729028;29;45494;-87
2022/11/03 11:52:09;;;;;;;;;0.00;0.00;;;;;;;;4745970;29;45497;-89
2022/11/03 11:54:35;;;;;;;;;0.00;0.00;;;;;;;;4727009;29;47144;-88
2022/11/03 11:57:00;;;;;;;;;0.00;0.00;;;;;;;;4727459;30;45565;-87
2022/11/03 11:59:25;;;;;;;;;0.00;0.00;;;;;;;;4717174;29;45652;-86
2022/11/03 12:01:51;;;;;;;;;0.00;0.00;;;;;;;;4725661;30;46061;-85
2022/11/03 12:04:19;;;;;;;;;0.00;0.00;;;;;;;;4722214;29;45484;-86
2022/11/03 12:06:45;;;;;;;;;0.00;0.00;;;;;;;;4723754;30;45534;-85
2022/11/03 12:09:13;;;;;;;;;0.00;0.00;;;;;;;;4726142;30;45461;-85
2022/11/03 12:11:48;;;;;;;;;0.00;0.00;;;;;;;;4726702;30;45431;-85
2022/11/03 12:14:24;;;;;;;;;0.00;0.00;;;;;;;;4719323;30;46450;-86
2022/11/03 12:16:49;;;;;;;;;0.00;0.00;;;;;;;;4722029;29;46050;-87
2022/11/03 12:19:33;;;;;;;;;0.00;0.00;;;;;;;;4745404;29;28477;-86
2022/11/03 12:21:59;;;;;;;;;0.00;0.00;;;;;;;;4738778;29;28666;-86
2022/11/03 12:24:24;;;;;;;;;1.00;1.00;;;;;;;;4733845;30;30064;-87
2022/11/03 12:26:50;;;;;;;;;0.00;0.00;;;;;;;;4734483;30;28511;-86
2022/11/03 12:29:15;;;;;;;;;0.00;0.00;;;;;;;;4750495;30;27905;-87
2022/11/03 12:31:40;;;;;;;;;0.00;0.00;;;;;;;;4744290;30;28826;-84
2022/11/03 12:34:05;;;;;;;;;0.00;0.00;;;;;;;;4752650;30;31379;-88
2022/11/03 12:36:30;;;;;;;;;0.00;0.00;;;;;;;;4755239;29;8894;-88
2022/11/03 12:38:55;;;;;;;;;0.00;0.00;;;;;;;;4756097;30;38345;-91
2022/11/03 12:41:21;;;;;;;;;0.00;0.00;;;;;;;;4755744;30;24312;-87
2022/11/03 12:43:47;;;;;;;;;0.00;0.00;;;;;;;;4751198;30;25799;-86
2022/11/03 12:46:12;;;;;;;;;0.00;0.00;;;;;;;;4733793;30;28640;-86
2022/11/03 12:48:42;;;;;;;;;0.00;0.00;;;;;;;;4738941;30;44754;-87
2022/11/03 12:51:07;;;;;;;;;0.00;0.00;;;;;;;;4730044;30;45490;-88
2022/11/03 12:53:32;;;;;;;;;0.00;0.00;;;;;;;;4738517;29;31269;-87
2022/11/03 12:55:58;;;;;;;;;0.00;0.00;;;;;;;;4756151;29;45632;-86
2022/11/03 12:58:23;;;;;;;;;0.00;0.00;;;;;;;;4747659;29;41831;-86
2022/11/03 13:00:48;;;;;;;;;0.00;0.00;;;;;;;;4757734;29;39617;-86
2022/11/03 13:03:13;;;;;;;;;0.00;0.00;;;;;;;;4753719;29;28481;-86
2022/11/03 13:05:38;;;;;;;;;0.00;0.00;;;;;;;;4744837;29;45568;-86
2022/11/03 13:08:04;;;;;;;;;0.00;0.00;;;;;;;;4737917;29;45466;-86
2022/11/03 13:10:29;;;;;;;;;0.00;0.00;;;;;;;;4744901;29;27957;-86
2022/11/03 13:12:54;;;;;;;;;0.00;0.00;;;;;;;;4761727;29;27992;-86
2022/11/03 13:15:19;;;;;;;;;0.00;0.00;;;;;;;;4750559;29;29297;-87
2022/11/03 13:17:45;;;;;;;;;0.00;0.00;;;;;;;;4746949;29;28526;-87
2022/11/03 13:20:13;;;;;;;;;0.00;0.00;;;;;;;;4741829;29;29570;-87
2022/11/03 13:22:38;;;;;;;;;0.00;0.00;;;;;;;;4741218;29;38214;-87
2022/11/03 13:25:03;;;;;;;;;0.00;0.00;;;;;;;;4760644;29;28530;-87
2022/11/03 13:27:29;;;;;;;;;0.00;0.00;;;;;;;;4763256;29;28545;-88
2022/11/03 13:29:55;;;;;;;;;0.00;0.00;;;;;;;;4753830;29;36774;-89
2022/11/03 13:32:20;;;;;;;;;0.00;0.00;;;;;;;;4759321;29;38173;-87
2022/11/03 13:34:45;;;;;;;;;0.00;0.00;;;;;;;;4751443;29;28552;-88
2022/11/03 13:37:10;;;;;;;;;0.00;0.00;;;;;;;;4754148;29;28740;-89
2022/11/03 13:39:36;;;;;;;;;0.00;0.00;;;;;;;;4771235;29;44519;-89
2022/11/03 13:42:01;;;;;;;;;0.00;0.00;;;;;;;;4753549;29;9957;-89
2022/11/03 13:44:26;;;;;;;;;0.00;0.00;;;;;;;;4751950;29;42346;-88
2022/11/03 13:46:51;;;;;;;;;0.00;0.00;;;;;;;;4756881;29;28514;-89
2022/11/03 13:49:16;;;;;;;;;0.00;0.00;;;;;;;;4780199;29;9392;-89
2022/11/03 13:51:41;;;;;;;;;0.00;0.00;;;;;;;;4761874;29;9140;-89
2022/11/03 13:54:07;;;;;;;;;0.00;0.00;;;;;;;;4757132;30;9002;-89
2022/11/03 13:56:32;;;;;;;;;0.00;0.00;;;;;;;;4781198;29;8954;-89
2022/11/03 13:58:57;;;;;;;;;0.00;0.00;;;;;;;;4757513;29;8961;-89
2022/11/03 14:01:23;;;;;;;;;0.00;0.00;;;;;;;;4782730;29;8891;-89
2022/11/03 14:03:48;;;;;;;;;0.00;0.00;;;;;;;;4757517;30;9035;-90
2022/11/03 14:06:13;;;;;;;;;0.00;0.00;;;;;;;;4752446;29;8875;-89
2022/11/03 14:08:38;;;;;;;;;0.00;0.00;;;;;;;;4766379;29;9410;-90
2022/11/03 14:12:29;;;;;;;;;0.00;0.00;;;;;;;;4782759;29;8880;-89
2022/11/03 14:13:49;;;;;;;;;0.00;0.00;;;;;;;;4776284;29;26595;-89
2022/11/03 14:16:14;;;;;;;;;27.00;27.00;;;;;;;;4741684;29;28936;-89
2022/11/03 14:18:39;;;;;;;;;0.00;0.00;;;;;;;;4758581;29;28591;-89
2022/11/03 14:21:05;;;;;;;;;0.00;0.00;;;;;;;;4760359;29;28427;-89
2022/11/03 14:23:30;;;;;;;;;0.00;0.00;;;;;;;;4758959;29;28543;-89
2022/11/03 14:25:55;;;;;;;;;0.00;0.00;;;;;;;;4765942;29;27664;-89
2022/11/03 14:28:20;;;;;;;;;0.00;0.00;;;;;;;;4770415;29;28444;-89
2022/11/03 14:30:45;;;;;;;;;0.00;0.00;;;;;;;;4755021;29;46653;-89
2022/11/03 14:33:10;;;;;;;;;0.00;0.00;;;;;;;;4756594;29;45503;-89
2022/11/03 14:35:36;;;;;;;;;0.00;0.00;;;;;;;;4767647;29;45572;-90
2022/11/03 14:38:01;;;;;;;;;0.00;0.00;;;;;;;;4743797;29;45541;-89
2022/11/03 14:43:10;;;;;;;;;0.00;0.00;;;;;;;;4765722;29;28679;-90
2022/11/03 14:45:35;;;;;;;;;0.00;0.00;;;;;;;;4743056;29;28676;-91
2022/11/03 14:48:00;;;;;;;;;0.00;0.00;;;;;;;;4745252;29;28451;-90
2022/11/03 14:50:25;;;;;;;;;0.00;0.00;;;;;;;;4770001;29;28118;-89
2022/11/03 14:52:51;;;;;;;;;0.00;0.00;;;;;;;;4753543;29;45458;-90
2022/11/03 14:55:16;;;;;;;;;0.00;0.00;;;;;;;;4748063;29;44887;-95
2022/11/03 14:57:41;;;;;;;;;0.00;0.00;;;;;;;;4740254;29;45798;-92
2022/11/03 15:00:10;;;;;;;;;0.00;0.00;;;;;;;;4727781;29;48527;-92
2022/11/03 15:02:35;;;;;;;;;1.00;1.00;;;;;;;;4767833;29;44711;-90
2022/11/03 15:05:00;;;;;;;;;0.00;0.00;;;;;;;;4731406;29;45378;-90
2022/11/03 15:07:25;;;;;;;;;0.00;0.00;;;;;;;;4723482;29;45494;-91
2022/11/03 15:09:50;;;;;;;;;0.00;0.00;;;;;;;;4739486;29;47021;-90
2022/11/03 15:12:15;;;;;;;;;0.00;0.00;;;;;;;;4724712;29;45462;-92